sensor_id;sensor_type;location;lat;lon;timestamp;P1;durP1;ratioP1;P2;durP2;ratioP2
74457;SDS011;62896;51.032;3.712;2023-04-10T00:02:38;13.4;;;10.9;;
74457;SDS011;62896;51.032;3.712;2023-04-10T00:05:57;13.4;;;10.9;;
74457;SDS011;62896;51.032;3.712;2023-04-10T00:09:17;13.4;;;10.9;;
74457;SDS011;62896;51.032;3.712;2023-04-10T00:12:37;12.5;;;9.5;;
74457;SDS011;62896;51.032;3.712;2023-04-10T00:15:57;12.5;;;9.5;;
74457;SDS011;62896;51.032;3.712;2023-04-10T00:19:18;12.5;;;9.5;;
74457;SDS011;62896;51.032;3.712;2023-04-10T00:22:37;12.5;;;9.5;;
74457;SDS011;62896;51.032;3.712;2023-04-10T00:25:57;12.5;;;9.5;;
74457;SDS011;62896;51.032;3.712;2023-04-10T00:29:17;12.5;;;9.5;;
74457;SDS011;62896;51.032;3.712;2023-04-10T00:32:37;12.5;;;9.5;;
74457;SDS011;62896;51.032;3.712;2023-04-10T00:35:58;11.4;;;8.6;;
74457;SDS011;62896;51.032;3.712;2023-04-10T00:39:18;11.4;;;8.6;;
74457;SDS011;62896;51.032;3.712;2023-04-10T00:42:38;11.4;;;8.6;;
74457;SDS011;62896;51.032;3.712;2023-04-10T00:45:58;11.4;;;8.6;;
74457;SDS011;62896;51.032;3.712;2023-04-10T00:49:18;11.4;;;8.6;;
74457;SDS011;62896;51.032;3.712;2023-04-10T00:52:38;11.4;;;8.6;;
74457;SDS011;62896;51.032;3.712;2023-04-10T00:55:58;11.4;;;8.6;;
74457;SDS011;62896;51.032;3.712;2023-04-10T00:59:18;11.4;;;8.6;;
74457;SDS011;62896;51.032;3.712;2023-04-10T01:02:38;8.1;;;6.7;;
74457;SDS011;62896;51.032;3.712;2023-04-10T01:06:00;8.1;;;6.7;;
74457;SDS011;62896;51.032;3.712;2023-04-10T01:09:19;8.1;;;6.7;;
74457;SDS011;62896;51.032;3.712;2023-04-10T01:12:42;8.1;;;6.7;;
74457;SDS011;62896;51.032;3.712;2023-04-10T01:15:59;8.1;;;6.7;;
74457;SDS011;62896;51.032;3.712;2023-04-10T01:19:23;8.1;;;6.7;;
74457;SDS011;62896;51.032;3.712;2023-04-10T01:22:40;8.1;;;6.7;;
74457;SDS011;62896;51.032;3.712;2023-04-10T01:25:58;8.3;;;6.6;;
74457;SDS011;62896;51.032;3.712;2023-04-10T01:29:18;8.3;;;6.6;;
74457;SDS011;62896;51.032;3.712;2023-04-10T01:32:38;8.3;;;6.6;;
74457;SDS011;62896;51.032;3.712;2023-04-10T01:35:58;8.3;;;6.6;;
74457;SDS011;62896;51.032;3.712;2023-04-10T01:39:18;8.3;;;6.6;;
74457;SDS011;62896;51.032;3.712;2023-04-10T01:42:39;8.3;;;6.6;;
74457;SDS011;62896;51.032;3.712;2023-04-10T01:45:58;8.3;;;6.6;;
74457;SDS011;62896;51.032;3.712;2023-04-10T01:49:18;8.3;;;6.6;;
74457;SDS011;62896;51.032;3.712;2023-04-10T01:52:38;7.5;;;6.4;;
74457;SDS011;62896;51.032;3.712;2023-04-10T01:55:58;7.5;;;6.4;;
74457;SDS011;62896;51.032;3.712;2023-04-10T01:59:18;7.5;;;6.4;;
74457;SDS011;62896;51.032;3.712;2023-04-10T02:02:38;7.5;;;6.4;;
74457;SDS011;62896;51.032;3.712;2023-04-10T02:06:00;7.5;;;6.4;;
74457;SDS011;62896;51.032;3.712;2023-04-10T02:09:18;7.5;;;6.4;;
74457;SDS011;62896;51.032;3.712;2023-04-10T02:12:38;7.5;;;6.4;;
74457;SDS011;62896;51.032;3.712;2023-04-10T02:15:58;7.8;;;5.8;;
74457;SDS011;62896;51.032;3.712;2023-04-10T02:19:18;7.8;;;5.8;;
74457;SDS011;62896;51.032;3.712;2023-04-10T02:22:38;7.8;;;5.8;;
74457;SDS011;62896;51.032;3.712;2023-04-10T02:25:58;7.8;;;5.8;;
74457;SDS011;62896;51.032;3.712;2023-04-10T02:29:18;7.8;;;5.8;;
74457;SDS011;62896;51.032;3.712;2023-04-10T02:32:38;7.8;;;5.8;;
74457;SDS011;62896;51.032;3.712;2023-04-10T02:35:58;7.8;;;5.8;;
74457;SDS011;62896;51.032;3.712;2023-04-10T02:39:18;7.8;;;5.8;;
74457;SDS011;62896;51.032;3.712;2023-04-10T02:42:38;8.8;;;6.1;;
74457;SDS011;62896;51.032;3.712;2023-04-10T02:45:58;8.8;;;6.1;;
74457;SDS011;62896;51.032;3.712;2023-04-10T02:49:18;8.8;;;6.1;;
74457;SDS011;62896;51.032;3.712;2023-04-10T02:52:38;8.8;;;6.1;;
74457;SDS011;62896;51.032;3.712;2023-04-10T02:55:58;8.8;;;6.1;;
74457;SDS011;62896;51.032;3.712;2023-04-10T02:59:18;8.8;;;6.1;;
74457;SDS011;62896;51.032;3.712;2023-04-10T03:02:38;8.8;;;6.1;;
74457;SDS011;62896;51.032;3.712;2023-04-10T03:05:58;9.9;;;5.7;;
74457;SDS011;62896;51.032;3.712;2023-04-10T03:09:18;9.9;;;5.7;;
74457;SDS011;62896;51.032;3.712;2023-04-10T03:12:38;9.9;;;5.7;;
74457;SDS011;62896;51.032;3.712;2023-04-10T03:15:58;9.9;;;5.7;;
74457;SDS011;62896;51.032;3.712;2023-04-10T03:19:18;9.9;;;5.7;;
74457;SDS011;62896;51.032;3.712;2023-04-10T03:22:38;9.9;;;5.7;;
74457;SDS011;62896;51.032;3.712;2023-04-10T03:25:58;9.9;;;5.7;;
74457;SDS011;62896;51.032;3.712;2023-04-10T03:29:18;9.9;;;5.7;;
74457;SDS011;62896;51.032;3.712;2023-04-10T03:32:38;5.7;;;4.4;;
74457;SDS011;62896;51.032;3.712;2023-04-10T03:35:58;5.7;;;4.4;;
74457;SDS011;62896;51.032;3.712;2023-04-10T03:39:18;5.7;;;4.4;;
74457;SDS011;62896;51.032;3.712;2023-04-10T03:42:38;5.7;;;4.4;;
74457;SDS011;62896;51.032;3.712;2023-04-10T03:45:58;5.7;;;4.4;;
74457;SDS011;62896;51.032;3.712;2023-04-10T03:49:18;5.7;;;4.4;;
74457;SDS011;62896;51.032;3.712;2023-04-10T03:55:58;5.7;;;4.8;;
74457;SDS011;62896;51.032;3.712;2023-04-10T03:59:18;5.7;;;4.8;;
74457;SDS011;62896;51.032;3.712;2023-04-10T04:02:38;5.7;;;4.8;;
74457;SDS011;62896;51.032;3.712;2023-04-10T04:05:58;5.7;;;4.8;;
74457;SDS011;62896;51.032;3.712;2023-04-10T04:09:18;5.7;;;4.8;;
74457;SDS011;62896;51.032;3.712;2023-04-10T04:12:38;5.7;;;4.8;;
74457;SDS011;62896;51.032;3.712;2023-04-10T04:15:58;5.7;;;4.8;;
74457;SDS011;62896;51.032;3.712;2023-04-10T04:19:18;5.7;;;4.8;;
74457;SDS011;62896;51.032;3.712;2023-04-10T04:22:38;5.2;;;4.5;;
74457;SDS011;62896;51.032;3.712;2023-04-10T04:25:58;5.2;;;4.5;;
74457;SDS011;62896;51.032;3.712;2023-04-10T04:29:18;5.2;;;4.5;;
74457;SDS011;62896;51.032;3.712;2023-04-10T04:32:38;5.2;;;4.5;;
74457;SDS011;62896;51.032;3.712;2023-04-10T04:35:58;5.2;;;4.5;;
74457;SDS011;62896;51.032;3.712;2023-04-10T04:39:18;5.2;;;4.5;;
74457;SDS011;62896;51.032;3.712;2023-04-10T04:42:38;5.2;;;4.5;;
74457;SDS011;62896;51.032;3.712;2023-04-10T04:45:58;5.6;;;4.7;;
74457;SDS011;62896;51.032;3.712;2023-04-10T04:49:18;5.6;;;4.7;;
74457;SDS011;62896;51.032;3.712;2023-04-10T04:52:38;5.6;;;4.7;;
74457;SDS011;62896;51.032;3.712;2023-04-10T04:55:58;5.6;;;4.7;;
74457;SDS011;62896;51.032;3.712;2023-04-10T04:59:18;5.6;;;4.7;;
74457;SDS011;62896;51.032;3.712;2023-04-10T05:02:38;5.6;;;4.7;;
74457;SDS011;62896;51.032;3.712;2023-04-10T05:05:58;5.6;;;4.7;;
74457;SDS011;62896;51.032;3.712;2023-04-10T05:09:18;5.6;;;4.7;;
74457;SDS011;62896;51.032;3.712;2023-04-10T05:12:38;5.9;;;4.9;;
74457;SDS011;62896;51.032;3.712;2023-04-10T05:15:58;5.9;;;4.9;;
74457;SDS011;62896;51.032;3.712;2023-04-10T05:19:18;5.9;;;4.9;;
74457;SDS011;62896;51.032;3.712;2023-04-10T05:22:38;5.9;;;4.9;;
74457;SDS011;62896;51.032;3.712;2023-04-10T05:25:58;5.9;;;4.9;;
74457;SDS011;62896;51.032;3.712;2023-04-10T05:29:18;5.9;;;4.9;;
74457;SDS011;62896;51.032;3.712;2023-04-10T05:32:38;5.9;;;4.9;;
74457;SDS011;62896;51.032;3.712;2023-04-10T05:35:58;6.7;;;5.3;;
74457;SDS011;62896;51.032;3.712;2023-04-10T05:39:18;6.7;;;5.3;;
74457;SDS011;62896;51.032;3.712;2023-04-10T05:42:38;6.7;;;5.3;;
74457;SDS011;62896;51.032;3.712;2023-04-10T05:45:58;6.7;;;5.3;;
74457;SDS011;62896;51.032;3.712;2023-04-10T05:49:18;6.7;;;5.3;;
74457;SDS011;62896;51.032;3.712;2023-04-10T05:52:38;6.7;;;5.3;;
74457;SDS011;62896;51.032;3.712;2023-04-10T05:55:58;6.7;;;5.3;;
74457;SDS011;62896;51.032;3.712;2023-04-10T05:59:18;6.7;;;5.3;;
74457;SDS011;62896;51.032;3.712;2023-04-10T06:02:38;8.4;;;5.8;;
74457;SDS011;62896;51.032;3.712;2023-04-10T06:05:58;8.4;;;5.8;;
74457;SDS011;62896;51.032;3.712;2023-04-10T06:09:18;8.4;;;5.8;;
74457;SDS011;62896;51.032;3.712;2023-04-10T06:12:38;8.4;;;5.8;;
74457;SDS011;62896;51.032;3.712;2023-04-10T06:15:58;8.4;;;5.8;;
74457;SDS011;62896;51.032;3.712;2023-04-10T06:19:18;8.4;;;5.8;;
74457;SDS011;62896;51.032;3.712;2023-04-10T06:22:38;8.4;;;5.8;;
74457;SDS011;62896;51.032;3.712;2023-04-10T06:25:58;10.7;;;6.2;;
74457;SDS011;62896;51.032;3.712;2023-04-10T06:29:18;10.7;;;6.2;;
74457;SDS011;62896;51.032;3.712;2023-04-10T06:32:38;10.7;;;6.2;;
74457;SDS011;62896;51.032;3.712;2023-04-10T06:35:58;10.7;;;6.2;;
74457;SDS011;62896;51.032;3.712;2023-04-10T06:39:18;10.7;;;6.2;;
74457;SDS011;62896;51.032;3.712;2023-04-10T06:42:38;10.7;;;6.2;;
74457;SDS011;62896;51.032;3.712;2023-04-10T06:45:58;10.7;;;6.2;;
74457;SDS011;62896;51.032;3.712;2023-04-10T06:49:18;10.7;;;6.2;;
74457;SDS011;62896;51.032;3.712;2023-04-10T06:52:38;8.3;;;6.1;;
74457;SDS011;62896;51.032;3.712;2023-04-10T06:55:58;8.3;;;6.1;;
74457;SDS011;62896;51.032;3.712;2023-04-10T06:59:18;8.3;;;6.1;;
74457;SDS011;62896;51.032;3.712;2023-04-10T07:02:38;8.3;;;6.1;;
74457;SDS011;62896;51.032;3.712;2023-04-10T07:05:58;8.3;;;6.1;;
74457;SDS011;62896;51.032;3.712;2023-04-10T07:09:18;8.3;;;6.1;;
74457;SDS011;62896;51.032;3.712;2023-04-10T07:12:38;8.3;;;6.1;;
74457;SDS011;62896;51.032;3.712;2023-04-10T07:15:58;7;;;4.8;;
74457;SDS011;62896;51.032;3.712;2023-04-10T07:19:18;7;;;4.8;;
74457;SDS011;62896;51.032;3.712;2023-04-10T07:22:38;7;;;4.8;;
74457;SDS011;62896;51.032;3.712;2023-04-10T07:25:58;7;;;4.8;;
74457;SDS011;62896;51.032;3.712;2023-04-10T07:29:18;7;;;4.8;;
74457;SDS011;62896;51.032;3.712;2023-04-10T07:32:38;7;;;4.8;;
74457;SDS011;62896;51.032;3.712;2023-04-10T07:35:58;7;;;4.8;;
74457;SDS011;62896;51.032;3.712;2023-04-10T07:39:18;7;;;4.8;;
74457;SDS011;62896;51.032;3.712;2023-04-10T07:42:38;6.4;;;5.3;;
74457;SDS011;62896;51.032;3.712;2023-04-10T07:45:58;6.4;;;5.3;;
74457;SDS011;62896;51.032;3.712;2023-04-10T07:49:18;6.4;;;5.3;;
74457;SDS011;62896;51.032;3.712;2023-04-10T07:52:38;6.4;;;5.3;;
74457;SDS011;62896;51.032;3.712;2023-04-10T07:55:58;6.4;;;5.3;;
74457;SDS011;62896;51.032;3.712;2023-04-10T07:59:18;6.4;;;5.3;;
74457;SDS011;62896;51.032;3.712;2023-04-10T08:02:38;6.4;;;5.3;;
74457;SDS011;62896;51.032;3.712;2023-04-10T08:05:58;7.7;;;5;;
74457;SDS011;62896;51.032;3.712;2023-04-10T08:09:18;7.7;;;5;;
74457;SDS011;62896;51.032;3.712;2023-04-10T08:12:38;7.7;;;5;;
74457;SDS011;62896;51.032;3.712;2023-04-10T08:15:58;7.7;;;5;;
74457;SDS011;62896;51.032;3.712;2023-04-10T08:19:18;7.7;;;5;;
74457;SDS011;62896;51.032;3.712;2023-04-10T08:22:38;7.7;;;5;;
74457;SDS011;62896;51.032;3.712;2023-04-10T08:25:58;7.7;;;5;;
74457;SDS011;62896;51.032;3.712;2023-04-10T08:29:18;7.7;;;5;;
74457;SDS011;62896;51.032;3.712;2023-04-10T08:32:38;5.1;;;4.6;;
74457;SDS011;62896;51.032;3.712;2023-04-10T08:35:58;5.1;;;4.6;;
74457;SDS011;62896;51.032;3.712;2023-04-10T08:39:18;5.1;;;4.6;;
74457;SDS011;62896;51.032;3.712;2023-04-10T08:42:38;5.1;;;4.6;;
74457;SDS011;62896;51.032;3.712;2023-04-10T08:45:58;5.1;;;4.6;;
74457;SDS011;62896;51.032;3.712;2023-04-10T08:49:21;5.1;;;4.6;;
74457;SDS011;62896;51.032;3.712;2023-04-10T08:52:40;5.1;;;4.6;;
74457;SDS011;62896;51.032;3.712;2023-04-10T08:55:58;5.8;;;4.8;;
74457;SDS011;62896;51.032;3.712;2023-04-10T08:59:18;5.8;;;4.8;;
74457;SDS011;62896;51.032;3.712;2023-04-10T09:02:38;5.8;;;4.8;;
74457;SDS011;62896;51.032;3.712;2023-04-10T09:05:59;5.8;;;4.8;;
74457;SDS011;62896;51.032;3.712;2023-04-10T09:09:18;5.8;;;4.8;;
74457;SDS011;62896;51.032;3.712;2023-04-10T09:12:46;5.8;;;4.8;;
74457;SDS011;62896;51.032;3.712;2023-04-10T09:15:58;5.8;;;4.8;;
74457;SDS011;62896;51.032;3.712;2023-04-10T09:19:28;5.8;;;4.8;;
74457;SDS011;62896;51.032;3.712;2023-04-10T09:22:38;5.6;;;4.4;;
74457;SDS011;62896;51.032;3.712;2023-04-10T09:25:58;5.6;;;4.4;;
74457;SDS011;62896;51.032;3.712;2023-04-10T09:29:18;5.6;;;4.4;;
74457;SDS011;62896;51.032;3.712;2023-04-10T09:32:39;5.6;;;4.4;;
74457;SDS011;62896;51.032;3.712;2023-04-10T09:35:58;5.6;;;4.4;;
74457;SDS011;62896;51.032;3.712;2023-04-10T09:39:18;5.6;;;4.4;;
74457;SDS011;62896;51.032;3.712;2023-04-10T09:42:38;5.6;;;4.4;;
74457;SDS011;62896;51.032;3.712;2023-04-10T09:45:58;7.1;;;4.7;;
74457;SDS011;62896;51.032;3.712;2023-04-10T09:49:18;7.1;;;4.7;;
74457;SDS011;62896;51.032;3.712;2023-04-10T09:52:38;7.1;;;4.7;;
74457;SDS011;62896;51.032;3.712;2023-04-10T09:55:58;7.1;;;4.7;;
74457;SDS011;62896;51.032;3.712;2023-04-10T09:59:18;7.1;;;4.7;;
74457;SDS011;62896;51.032;3.712;2023-04-10T10:02:38;7.1;;;4.7;;
74457;SDS011;62896;51.032;3.712;2023-04-10T10:05:58;7.1;;;4.7;;
74457;SDS011;62896;51.032;3.712;2023-04-10T10:09:18;7.1;;;4.7;;
74457;SDS011;62896;51.032;3.712;2023-04-10T10:12:39;9.4;;;4.8;;
74457;SDS011;62896;51.032;3.712;2023-04-10T10:16:00;9.4;;;4.8;;
74457;SDS011;62896;51.032;3.712;2023-04-10T10:19:20;9.4;;;4.8;;
74457;SDS011;62896;51.032;3.712;2023-04-10T10:22:38;9.4;;;4.8;;
74457;SDS011;62896;51.032;3.712;2023-04-10T10:25:58;9.4;;;4.8;;
74457;SDS011;62896;51.032;3.712;2023-04-10T10:29:18;9.4;;;4.8;;
74457;SDS011;62896;51.032;3.712;2023-04-10T10:32:38;9.4;;;4.8;;
74457;SDS011;62896;51.032;3.712;2023-04-10T10:35:58;7.4;;;4;;
74457;SDS011;62896;51.032;3.712;2023-04-10T10:39:22;7.4;;;4;;
74457;SDS011;62896;51.032;3.712;2023-04-10T10:42:41;7.4;;;4;;
74457;SDS011;62896;51.032;3.712;2023-04-10T10:45:59;7.4;;;4;;
74457;SDS011;62896;51.032;3.712;2023-04-10T10:49:18;7.4;;;4;;
74457;SDS011;62896;51.032;3.712;2023-04-10T10:52:39;7.4;;;4;;
74457;SDS011;62896;51.032;3.712;2023-04-10T10:55:58;7.4;;;4;;
74457;SDS011;62896;51.032;3.712;2023-04-10T10:59:18;7.4;;;4;;
74457;SDS011;62896;51.032;3.712;2023-04-10T11:02:38;4.2;;;3.4;;
74457;SDS011;62896;51.032;3.712;2023-04-10T11:05:58;4.2;;;3.4;;
74457;SDS011;62896;51.032;3.712;2023-04-10T11:09:49;4.2;;;3.4;;
74457;SDS011;62896;51.032;3.712;2023-04-10T11:13:13;4.2;;;3.4;;
74457;SDS011;62896;51.032;3.712;2023-04-10T11:15:58;4.2;;;3.4;;
74457;SDS011;62896;51.032;3.712;2023-04-10T11:19:18;4.2;;;3.4;;
74457;SDS011;62896;51.032;3.712;2023-04-10T11:23:05;4.2;;;3.4;;
74457;SDS011;62896;51.032;3.712;2023-04-10T11:25:58;4.3;;;3.2;;
74457;SDS011;62896;51.032;3.712;2023-04-10T11:29:33;4.3;;;3.2;;
74457;SDS011;62896;51.032;3.712;2023-04-10T11:32:39;4.3;;;3.2;;
74457;SDS011;62896;51.032;3.712;2023-04-10T11:35:58;4.3;;;3.2;;
74457;SDS011;62896;51.032;3.712;2023-04-10T11:39:18;4.3;;;3.2;;
74457;SDS011;62896;51.032;3.712;2023-04-10T11:42:38;4.3;;;3.2;;
74457;SDS011;62896;51.032;3.712;2023-04-10T11:45:59;4.3;;;3.2;;
74457;SDS011;62896;51.032;3.712;2023-04-10T11:49:19;4.3;;;3.2;;
74457;SDS011;62896;51.032;3.712;2023-04-10T11:52:38;4.7;;;3.9;;
74457;SDS011;62896;51.032;3.712;2023-04-10T11:55:58;4.7;;;3.9;;
74457;SDS011;62896;51.032;3.712;2023-04-10T11:59:18;4.7;;;3.9;;
74457;SDS011;62896;51.032;3.712;2023-04-10T12:02:48;4.7;;;3.9;;
74457;SDS011;62896;51.032;3.712;2023-04-10T12:05:58;4.7;;;3.9;;
74457;SDS011;62896;51.032;3.712;2023-04-10T12:09:18;4.7;;;3.9;;
74457;SDS011;62896;51.032;3.712;2023-04-10T12:12:38;4.7;;;3.9;;
74457;SDS011;62896;51.032;3.712;2023-04-10T12:15:59;5.6;;;4;;
74457;SDS011;62896;51.032;3.712;2023-04-10T12:19:18;5.6;;;4;;
74457;SDS011;62896;51.032;3.712;2023-04-10T12:22:38;5.6;;;4;;
74457;SDS011;62896;51.032;3.712;2023-04-10T12:26:06;5.6;;;4;;
74457;SDS011;62896;51.032;3.712;2023-04-10T12:29:18;5.6;;;4;;
74457;SDS011;62896;51.032;3.712;2023-04-10T12:32:38;5.6;;;4;;
74457;SDS011;62896;51.032;3.712;2023-04-10T12:35:58;5.6;;;4;;
74457;SDS011;62896;51.032;3.712;2023-04-10T12:39:21;5.6;;;4;;
74457;SDS011;62896;51.032;3.712;2023-04-10T12:42:38;5.7;;;4.3;;
74457;SDS011;62896;51.032;3.712;2023-04-10T12:45:58;5.7;;;4.3;;
74457;SDS011;62896;51.032;3.712;2023-04-10T12:49:18;5.7;;;4.3;;
74457;SDS011;62896;51.032;3.712;2023-04-10T12:52:39;5.7;;;4.3;;
74457;SDS011;62896;51.032;3.712;2023-04-10T12:55:59;5.7;;;4.3;;
74457;SDS011;62896;51.032;3.712;2023-04-10T12:59:18;5.7;;;4.3;;
74457;SDS011;62896;51.032;3.712;2023-04-10T13:02:38;5.7;;;4.3;;
74457;SDS011;62896;51.032;3.712;2023-04-10T13:05:58;5.4;;;4.5;;
74457;SDS011;62896;51.032;3.712;2023-04-10T13:09:18;5.4;;;4.5;;
74457;SDS011;62896;51.032;3.712;2023-04-10T13:12:38;5.4;;;4.5;;
74457;SDS011;62896;51.032;3.712;2023-04-10T13:15:58;5.4;;;4.5;;
74457;SDS011;62896;51.032;3.712;2023-04-10T13:19:18;5.4;;;4.5;;
74457;SDS011;62896;51.032;3.712;2023-04-10T13:22:38;5.4;;;4.5;;
74457;SDS011;62896;51.032;3.712;2023-04-10T13:25:58;5.4;;;4.5;;
74457;SDS011;62896;51.032;3.712;2023-04-10T13:29:18;5.4;;;4.5;;
74457;SDS011;62896;51.032;3.712;2023-04-10T13:32:38;5.9;;;4.7;;
74457;SDS011;62896;51.032;3.712;2023-04-10T13:35:58;5.9;;;4.7;;
74457;SDS011;62896;51.032;3.712;2023-04-10T13:39:18;5.9;;;4.7;;
74457;SDS011;62896;51.032;3.712;2023-04-10T13:42:38;5.9;;;4.7;;
74457;SDS011;62896;51.032;3.712;2023-04-10T13:45:58;5.9;;;4.7;;
74457;SDS011;62896;51.032;3.712;2023-04-10T13:49:18;5.9;;;4.7;;
74457;SDS011;62896;51.032;3.712;2023-04-10T13:52:38;5.9;;;4.7;;
74457;SDS011;62896;51.032;3.712;2023-04-10T13:55:58;4.1;;;3.5;;
74457;SDS011;62896;51.032;3.712;2023-04-10T13:59:18;4.1;;;3.5;;
74457;SDS011;62896;51.032;3.712;2023-04-10T14:02:38;4.1;;;3.5;;
74457;SDS011;62896;51.032;3.712;2023-04-10T14:05:58;4.1;;;3.5;;
74457;SDS011;62896;51.032;3.712;2023-04-10T14:09:18;4.1;;;3.5;;
74457;SDS011;62896;51.032;3.712;2023-04-10T14:12:38;4.1;;;3.5;;
74457;SDS011;62896;51.032;3.712;2023-04-10T14:15:58;4.1;;;3.5;;
74457;SDS011;62896;51.032;3.712;2023-04-10T14:19:18;4.1;;;3.5;;
74457;SDS011;62896;51.032;3.712;2023-04-10T14:22:38;8.5;;;5;;
74457;SDS011;62896;51.032;3.712;2023-04-10T14:25:58;8.5;;;5;;
74457;SDS011;62896;51.032;3.712;2023-04-10T14:29:18;8.5;;;5;;
74457;SDS011;62896;51.032;3.712;2023-04-10T14:32:38;8.5;;;5;;
74457;SDS011;62896;51.032;3.712;2023-04-10T14:35:58;8.5;;;5;;
74457;SDS011;62896;51.032;3.712;2023-04-10T14:39:18;8.5;;;5;;
74457;SDS011;62896;51.032;3.712;2023-04-10T14:42:38;8.5;;;5;;
74457;SDS011;62896;51.032;3.712;2023-04-10T14:45:58;10.3;;;7.1;;
74457;SDS011;62896;51.032;3.712;2023-04-10T14:49:18;10.3;;;7.1;;
74457;SDS011;62896;51.032;3.712;2023-04-10T14:52:38;10.3;;;7.1;;
74457;SDS011;62896;51.032;3.712;2023-04-10T14:55:58;10.3;;;7.1;;
74457;SDS011;62896;51.032;3.712;2023-04-10T14:59:18;10.3;;;7.1;;
74457;SDS011;62896;51.032;3.712;2023-04-10T15:02:38;10.3;;;7.1;;
74457;SDS011;62896;51.032;3.712;2023-04-10T15:05:58;10.3;;;7.1;;
74457;SDS011;62896;51.032;3.712;2023-04-10T15:09:18;10.3;;;7.1;;
74457;SDS011;62896;51.032;3.712;2023-04-10T15:12:38;8.6;;;7.3;;
74457;SDS011;62896;51.032;3.712;2023-04-10T15:15:58;8.6;;;7.3;;
74457;SDS011;62896;51.032;3.712;2023-04-10T15:19:18;8.6;;;7.3;;
74457;SDS011;62896;51.032;3.712;2023-04-10T15:22:38;8.6;;;7.3;;
74457;SDS011;62896;51.032;3.712;2023-04-10T15:25:58;8.6;;;7.3;;
74457;SDS011;62896;51.032;3.712;2023-04-10T15:29:18;8.6;;;7.3;;
74457;SDS011;62896;51.032;3.712;2023-04-10T15:32:38;8.6;;;7.3;;
74457;SDS011;62896;51.032;3.712;2023-04-10T15:35:58;8.9;;;6.4;;
74457;SDS011;62896;51.032;3.712;2023-04-10T15:39:18;8.9;;;6.4;;
74457;SDS011;62896;51.032;3.712;2023-04-10T15:42:38;8.9;;;6.4;;
74457;SDS011;62896;51.032;3.712;2023-04-10T15:45:58;8.9;;;6.4;;
74457;SDS011;62896;51.032;3.712;2023-04-10T15:49:18;8.9;;;6.4;;
74457;SDS011;62896;51.032;3.712;2023-04-10T15:52:38;8.9;;;6.4;;
74457;SDS011;62896;51.032;3.712;2023-04-10T15:55:58;8.9;;;6.4;;
74457;SDS011;62896;51.032;3.712;2023-04-10T15:59:18;8.9;;;6.4;;
74457;SDS011;62896;51.032;3.712;2023-04-10T16:02:38;6.7;;;4.5;;
74457;SDS011;62896;51.032;3.712;2023-04-10T16:05:58;6.7;;;4.5;;
74457;SDS011;62896;51.032;3.712;2023-04-10T16:09:18;6.7;;;4.5;;
74457;SDS011;62896;51.032;3.712;2023-04-10T16:12:39;6.7;;;4.5;;
74457;SDS011;62896;51.032;3.712;2023-04-10T16:15:58;6.7;;;4.5;;
74457;SDS011;62896;51.032;3.712;2023-04-10T16:19:18;6.7;;;4.5;;
74457;SDS011;62896;51.032;3.712;2023-04-10T16:22:38;6.7;;;4.5;;
74457;SDS011;62896;51.032;3.712;2023-04-10T16:25:58;6.6;;;3.4;;
74457;SDS011;62896;51.032;3.712;2023-04-10T16:29:18;6.6;;;3.4;;
74457;SDS011;62896;51.032;3.712;2023-04-10T16:32:38;6.6;;;3.4;;
74457;SDS011;62896;51.032;3.712;2023-04-10T16:35:58;6.6;;;3.4;;
74457;SDS011;62896;51.032;3.712;2023-04-10T16:39:18;6.6;;;3.4;;
74457;SDS011;62896;51.032;3.712;2023-04-10T16:42:38;6.6;;;3.4;;
74457;SDS011;62896;51.032;3.712;2023-04-10T16:45:58;6.6;;;3.4;;
74457;SDS011;62896;51.032;3.712;2023-04-10T16:49:18;6.6;;;3.4;;
74457;SDS011;62896;51.032;3.712;2023-04-10T16:52:38;6.4;;;2.7;;
74457;SDS011;62896;51.032;3.712;2023-04-10T16:55:58;6.4;;;2.7;;
74457;SDS011;62896;51.032;3.712;2023-04-10T16:59:18;6.4;;;2.7;;
74457;SDS011;62896;51.032;3.712;2023-04-10T17:02:38;6.4;;;2.7;;
74457;SDS011;62896;51.032;3.712;2023-04-10T17:05:58;6.4;;;2.7;;
74457;SDS011;62896;51.032;3.712;2023-04-10T17:09:18;6.4;;;2.7;;
74457;SDS011;62896;51.032;3.712;2023-04-10T17:12:38;6.4;;;2.7;;
74457;SDS011;62896;51.032;3.712;2023-04-10T17:15:58;4.7;;;2.6;;
74457;SDS011;62896;51.032;3.712;2023-04-10T17:19:18;4.7;;;2.6;;
74457;SDS011;62896;51.032;3.712;2023-04-10T17:22:38;4.7;;;2.6;;
74457;SDS011;62896;51.032;3.712;2023-04-10T17:25:58;4.7;;;2.6;;
74457;SDS011;62896;51.032;3.712;2023-04-10T17:29:18;4.7;;;2.6;;
74457;SDS011;62896;51.032;3.712;2023-04-10T17:32:38;4.7;;;2.6;;
74457;SDS011;62896;51.032;3.712;2023-04-10T17:35:58;4.7;;;2.6;;
74457;SDS011;62896;51.032;3.712;2023-04-10T17:39:18;4.7;;;2.6;;
74457;SDS011;62896;51.032;3.712;2023-04-10T17:42:38;8.2;;;2.9;;
74457;SDS011;62896;51.032;3.712;2023-04-10T17:45:58;8.2;;;2.9;;
74457;SDS011;62896;51.032;3.712;2023-04-10T17:49:19;8.2;;;2.9;;
74457;SDS011;62896;51.032;3.712;2023-04-10T17:52:38;8.2;;;2.9;;
74457;SDS011;62896;51.032;3.712;2023-04-10T17:55:58;8.2;;;2.9;;
74457;SDS011;62896;51.032;3.712;2023-04-10T17:59:18;8.2;;;2.9;;
74457;SDS011;62896;51.032;3.712;2023-04-10T18:02:38;8.2;;;2.9;;
74457;SDS011;62896;51.032;3.712;2023-04-10T18:05:58;6.3;;;2.4;;
74457;SDS011;62896;51.032;3.712;2023-04-10T18:09:18;6.3;;;2.4;;
74457;SDS011;62896;51.032;3.712;2023-04-10T18:12:39;6.3;;;2.4;;
74457;SDS011;62896;51.032;3.712;2023-04-10T18:15:59;6.3;;;2.4;;
74457;SDS011;62896;51.032;3.712;2023-04-10T18:19:18;6.3;;;2.4;;
74457;SDS011;62896;51.032;3.712;2023-04-10T18:22:38;6.3;;;2.4;;
74457;SDS011;62896;51.032;3.712;2023-04-10T18:25:58;6.3;;;2.4;;
74457;SDS011;62896;51.032;3.712;2023-04-10T18:29:18;6.3;;;2.4;;
74457;SDS011;62896;51.032;3.712;2023-04-10T18:32:38;10;;;3.1;;
74457;SDS011;62896;51.032;3.712;2023-04-10T18:35:58;10;;;3.1;;
74457;SDS011;62896;51.032;3.712;2023-04-10T18:39:18;10;;;3.1;;
74457;SDS011;62896;51.032;3.712;2023-04-10T18:42:38;10;;;3.1;;
74457;SDS011;62896;51.032;3.712;2023-04-10T18:45:58;10;;;3.1;;
74457;SDS011;62896;51.032;3.712;2023-04-10T18:49:18;10;;;3.1;;
74457;SDS011;62896;51.032;3.712;2023-04-10T18:52:38;10;;;3.1;;
74457;SDS011;62896;51.032;3.712;2023-04-10T18:55:58;13.8;;;2.9;;
74457;SDS011;62896;51.032;3.712;2023-04-10T18:59:18;13.8;;;2.9;;
74457;SDS011;62896;51.032;3.712;2023-04-10T19:02:38;13.8;;;2.9;;
74457;SDS011;62896;51.032;3.712;2023-04-10T19:05:58;13.8;;;2.9;;
74457;SDS011;62896;51.032;3.712;2023-04-10T19:09:18;13.8;;;2.9;;
74457;SDS011;62896;51.032;3.712;2023-04-10T19:12:38;13.8;;;2.9;;
74457;SDS011;62896;51.032;3.712;2023-04-10T19:15:58;13.8;;;2.9;;
74457;SDS011;62896;51.032;3.712;2023-04-10T19:19:18;13.8;;;2.9;;
74457;SDS011;62896;51.032;3.712;2023-04-10T19:22:38;15.5;;;2.9;;
74457;SDS011;62896;51.032;3.712;2023-04-10T19:25:58;15.5;;;2.9;;
74457;SDS011;62896;51.032;3.712;2023-04-10T19:29:18;15.5;;;2.9;;
74457;SDS011;62896;51.032;3.712;2023-04-10T19:32:38;15.5;;;2.9;;
74457;SDS011;62896;51.032;3.712;2023-04-10T19:35:58;15.5;;;2.9;;
74457;SDS011;62896;51.032;3.712;2023-04-10T19:39:18;15.5;;;2.9;;
74457;SDS011;62896;51.032;3.712;2023-04-10T19:42:38;15.5;;;2.9;;
74457;SDS011;62896;51.032;3.712;2023-04-10T19:45:58;12.8;;;3.4;;
74457;SDS011;62896;51.032;3.712;2023-04-10T19:49:18;12.8;;;3.4;;
74457;SDS011;62896;51.032;3.712;2023-04-10T19:52:38;12.8;;;3.4;;
74457;SDS011;62896;51.032;3.712;2023-04-10T19:55:58;12.8;;;3.4;;
74457;SDS011;62896;51.032;3.712;2023-04-10T19:59:18;12.8;;;3.4;;
74457;SDS011;62896;51.032;3.712;2023-04-10T20:02:38;12.8;;;3.4;;
74457;SDS011;62896;51.032;3.712;2023-04-10T20:05:58;12.8;;;3.4;;
74457;SDS011;62896;51.032;3.712;2023-04-10T20:09:18;12.8;;;3.4;;
74457;SDS011;62896;51.032;3.712;2023-04-10T20:12:38;13.8;;;3.2;;
74457;SDS011;62896;51.032;3.712;2023-04-10T20:15:58;13.8;;;3.2;;
74457;SDS011;62896;51.032;3.712;2023-04-10T20:19:18;13.8;;;3.2;;
74457;SDS011;62896;51.032;3.712;2023-04-10T20:22:38;13.8;;;3.2;;
74457;SDS011;62896;51.032;3.712;2023-04-10T20:25:58;13.8;;;3.2;;
74457;SDS011;62896;51.032;3.712;2023-04-10T20:29:18;13.8;;;3.2;;
74457;SDS011;62896;51.032;3.712;2023-04-10T20:32:38;13.8;;;3.2;;
74457;SDS011;62896;51.032;3.712;2023-04-10T20:35:58;20.7;;;3.1;;
74457;SDS011;62896;51.032;3.712;2023-04-10T20:39:18;20.7;;;3.1;;
74457;SDS011;62896;51.032;3.712;2023-04-10T20:42:38;20.7;;;3.1;;
74457;SDS011;62896;51.032;3.712;2023-04-10T20:46:00;20.7;;;3.1;;